sensor_id;sensor_type;location;lat;lon;timestamp;pressure;altitude;pressure_sealevel;temperature;humidity
40838;BME280;29632;49.168;9.848;2023-07-20T00:02:24;96597.09;;;24.85;33.95
40838;BME280;29632;49.168;9.848;2023-07-20T00:04:49;96589.50;;;24.77;33.98
40838;BME280;29632;49.168;9.848;2023-07-20T00:07:15;96591.84;;;24.73;33.80
40838;BME280;29632;49.168;9.848;2023-07-20T00:09:41;96587.78;;;24.71;33.87
40838;BME280;29632;49.168;9.848;2023-07-20T00:12:07;96589.88;;;24.68;34.18
40838;BME280;29632;49.168;9.848;2023-07-20T00:14:33;96585.63;;;24.67;33.98
40838;BME280;29632;49.168;9.848;2023-07-20T00:16:58;96581.88;;;24.68;34.10
40838;BME280;29632;49.168;9.848;2023-07-20T00:19:25;96582.94;;;24.67;34.04
40838;BME280;29632;49.168;9.848;2023-07-20T00:21:51;96588.66;;;24.59;34.08
40838;BME280;29632;49.168;9.848;2023-07-20T00:24:17;96592.94;;;24.48;34.21
40838;BME280;29632;49.168;9.848;2023-07-20T00:26:43;96596.44;;;24.37;34.35
40838;BME280;29632;49.168;9.848;2023-07-20T00:29:09;96600.53;;;24.28;34.22
40838;BME280;29632;49.168;9.848;2023-07-20T00:31:35;96592.34;;;24.18;34.63
40838;BME280;29632;49.168;9.848;2023-07-20T00:34:03;96588.91;;;24.05;34.59
40838;BME280;29632;49.168;9.848;2023-07-20T00:36:29;96591.78;;;24.04;34.90
40838;BME280;29632;49.168;9.848;2023-07-20T00:38:54;96593.06;;;24.01;34.92
40838;BME280;29632;49.168;9.848;2023-07-20T00:41:20;96596.66;;;23.95;34.63
40838;BME280;29632;49.168;9.848;2023-07-20T00:43:46;96607.63;;;23.87;34.77
40838;BME280;29632;49.168;9.848;2023-07-20T00:46:11;96608.34;;;23.82;34.70
40838;BME280;29632;49.168;9.848;2023-07-20T00:48:37;96604.25;;;23.80;35.04
40838;BME280;29632;49.168;9.848;2023-07-20T00:51:03;96604.63;;;23.83;34.54
40838;BME280;29632;49.168;9.848;2023-07-20T00:53:29;96602.31;;;23.87;34.75
40838;BME280;29632;49.168;9.848;2023-07-20T00:55:55;96605.81;;;23.87;34.40
40838;BME280;29632;49.168;9.848;2023-07-20T00:58:21;96609.25;;;23.88;34.68
40838;BME280;29632;49.168;9.848;2023-07-20T01:00:47;96608.69;;;23.86;34.52
40838;BME280;29632;49.168;9.848;2023-07-20T01:03:13;96597.13;;;23.92;34.69
40838;BME280;29632;49.168;9.848;2023-07-20T01:08:38;96616.09;;;23.84;34.57
40838;BME280;29632;49.168;9.848;2023-07-20T01:11:31;96609.56;;;23.80;34.56
40838;BME280;29632;49.168;9.848;2023-07-20T01:14:01;96607.28;;;23.71;34.82
40838;BME280;29632;49.168;9.848;2023-07-20T01:16:27;96611.22;;;23.69;34.80
40838;BME280;29632;49.168;9.848;2023-07-20T01:18:53;96606.59;;;23.64;34.98
40838;BME280;29632;49.168;9.848;2023-07-20T01:21:26;96609.94;;;23.60;34.66
40838;BME280;29632;49.168;9.848;2023-07-20T01:24:13;96617.56;;;23.56;34.97
40838;BME280;29632;49.168;9.848;2023-07-20T01:30:01;96609.94;;;23.48;34.75
40838;BME280;29632;49.168;9.848;2023-07-20T01:32:29;96602.91;;;23.42;35.07
40838;BME280;29632;49.168;9.848;2023-07-20T01:34:56;96607.28;;;23.48;34.69
40838;BME280;29632;49.168;9.848;2023-07-20T01:37:23;96611.56;;;23.49;34.96
40838;BME280;29632;49.168;9.848;2023-07-20T01:39:53;96610.84;;;23.53;34.83
40838;BME280;29632;49.168;9.848;2023-07-20T01:42:22;96615.47;;;23.58;34.55
40838;BME280;29632;49.168;9.848;2023-07-20T01:44:50;96615.47;;;23.58;34.63
40838;BME280;29632;49.168;9.848;2023-07-20T01:47:16;96615.38;;;23.53;34.60
40838;BME280;29632;49.168;9.848;2023-07-20T01:49:42;96616.66;;;23.50;34.87
40838;BME280;29632;49.168;9.848;2023-07-20T01:52:08;96614.44;;;23.47;34.55
40838;BME280;29632;49.168;9.848;2023-07-20T01:54:33;96608.22;;;23.42;34.97
40838;BME280;29632;49.168;9.848;2023-07-20T01:56:59;96612.91;;;23.40;34.88
40838;BME280;29632;49.168;9.848;2023-07-20T01:59:25;96614.19;;;23.37;34.76
40838;BME280;29632;49.168;9.848;2023-07-20T02:01:50;96618.94;;;23.35;34.81
40838;BME280;29632;49.168;9.848;2023-07-20T02:04:16;96616.50;;;23.33;34.69
40838;BME280;29632;49.168;9.848;2023-07-20T02:06:41;96626.56;;;23.31;34.95
40838;BME280;29632;49.168;9.848;2023-07-20T02:09:08;96634.19;;;23.28;34.67
40838;BME280;29632;49.168;9.848;2023-07-20T02:11:33;96627.56;;;23.18;34.91
40838;BME280;29632;49.168;9.848;2023-07-20T02:13:59;96624.91;;;23.18;35.16
40838;BME280;29632;49.168;9.848;2023-07-20T02:16:24;96628.47;;;23.12;35.01
40838;BME280;29632;49.168;9.848;2023-07-20T02:18:50;96629.38;;;23.06;35.02
40838;BME280;29632;49.168;9.848;2023-07-20T02:21:16;96630.03;;;23.02;35.32
40838;BME280;29632;49.168;9.848;2023-07-20T02:23:41;96629.09;;;22.96;35.33
40838;BME280;29632;49.168;9.848;2023-07-20T02:26:07;96626.06;;;22.92;35.13
40838;BME280;29632;49.168;9.848;2023-07-20T02:28:33;96629.41;;;22.88;35.27
40838;BME280;29632;49.168;9.848;2023-07-20T02:30:58;96635.19;;;22.85;35.31
40838;BME280;29632;49.168;9.848;2023-07-20T02:33:26;96633.75;;;22.82;35.32
40838;BME280;29632;49.168;9.848;2023-07-20T02:35:52;96639.78;;;22.77;35.29
40838;BME280;29632;49.168;9.848;2023-07-20T02:38:17;96641.38;;;22.78;35.33
40838;BME280;29632;49.168;9.848;2023-07-20T02:40:43;96629.38;;;22.76;35.58
40838;BME280;29632;49.168;9.848;2023-07-20T02:43:09;96642.88;;;22.74;35.37
40838;BME280;29632;49.168;9.848;2023-07-20T02:45:35;96638.00;;;22.71;35.48
40838;BME280;29632;49.168;9.848;2023-07-20T02:48:00;96638.59;;;22.73;35.16
40838;BME280;29632;49.168;9.848;2023-07-20T02:50:26;96639.78;;;22.77;35.27
40838;BME280;29632;49.168;9.848;2023-07-20T02:52:52;96641.16;;;22.80;35.37
40838;BME280;29632;49.168;9.848;2023-07-20T02:55:17;96646.81;;;22.84;35.23
40838;BME280;29632;49.168;9.848;2023-07-20T03:00:09;96646.50;;;22.92;35.09
40838;BME280;29632;49.168;9.848;2023-07-20T03:02:35;96651.81;;;22.92;35.48
40838;BME280;29632;49.168;9.848;2023-07-20T03:05:00;96656.91;;;22.93;35.08
40838;BME280;29632;49.168;9.848;2023-07-20T03:07:28;96652.97;;;22.96;35.34
40838;BME280;29632;49.168;9.848;2023-07-20T03:09:54;96649.88;;;22.99;35.23
40838;BME280;29632;49.168;9.848;2023-07-20T03:12:20;96653.22;;;22.94;35.05
40838;BME280;29632;49.168;9.848;2023-07-20T03:14:47;96657.22;;;22.85;35.29
40838;BME280;29632;49.168;9.848;2023-07-20T03:17:12;96659.50;;;22.81;35.52
40838;BME280;29632;49.168;9.848;2023-07-20T03:19:38;96661.38;;;22.81;35.55
40838;BME280;29632;49.168;9.848;2023-07-20T03:22:04;96664.69;;;22.76;35.45
40838;BME280;29632;49.168;9.848;2023-07-20T03:24:29;96661.88;;;22.71;35.63
40838;BME280;29632;49.168;9.848;2023-07-20T03:26:55;96661.88;;;22.71;35.41
40838;BME280;29632;49.168;9.848;2023-07-20T03:29:20;96669.50;;;22.68;35.79
40838;BME280;29632;49.168;9.848;2023-07-20T03:31:46;96664.25;;;22.61;35.75
40838;BME280;29632;49.168;9.848;2023-07-20T03:34:12;96666.78;;;22.56;35.86
40838;BME280;29632;49.168;9.848;2023-07-20T03:36:37;96672.97;;;22.50;35.97
40838;BME280;29632;49.168;9.848;2023-07-20T03:39:03;96670.19;;;22.44;35.75
40838;BME280;29632;49.168;9.848;2023-07-20T03:41:28;96675.13;;;22.41;35.79
40838;BME280;29632;49.168;9.848;2023-07-20T03:43:54;96677.56;;;22.42;35.75
40838;BME280;29632;49.168;9.848;2023-07-20T03:46:20;96671.88;;;22.39;36.03
40838;BME280;29632;49.168;9.848;2023-07-20T03:48:45;96676.75;;;22.42;35.93
40838;BME280;29632;49.168;9.848;2023-07-20T03:51:11;96676.66;;;22.49;35.86
40838;BME280;29632;49.168;9.848;2023-07-20T03:53:37;96679.09;;;22.50;35.68
40838;BME280;29632;49.168;9.848;2023-07-20T03:56:03;96686.09;;;22.44;35.71
40838;BME280;29632;49.168;9.848;2023-07-20T03:58:28;96686.16;;;22.38;35.93
40838;BME280;29632;49.168;9.848;2023-07-20T04:00:55;96681.19;;;22.30;35.86
40838;BME280;29632;49.168;9.848;2023-07-20T04:03:22;96687.72;;;22.27;36.05
40838;BME280;29632;49.168;9.848;2023-07-20T04:05:50;96686.25;;;22.31;35.94
40838;BME280;29632;49.168;9.848;2023-07-20T04:08:15;96687.88;;;22.32;35.94
40838;BME280;29632;49.168;9.848;2023-07-20T04:10:44;96688.09;;;22.31;35.96
40838;BME280;29632;49.168;9.848;2023-07-20T04:13:11;96687.81;;;22.39;35.79
40838;BME280;29632;49.168;9.848;2023-07-20T04:15:36;96687.72;;;22.46;35.67
40838;BME280;29632;49.168;9.848;2023-07-20T04:18:02;96695.84;;;22.51;35.74
40838;BME280;29632;49.168;9.848;2023-07-20T04:20:28;96690.28;;;22.52;35.70
40838;BME280;29632;49.168;9.848;2023-07-20T04:22:53;96693.78;;;22.53;35.76
40838;BME280;29632;49.168;9.848;2023-07-20T04:25:19;96697.22;;;22.53;35.46
40838;BME280;29632;49.168;9.848;2023-07-20T04:27:45;96695.59;;;22.52;35.56
40838;BME280;29632;49.168;9.848;2023-07-20T04:30:11;96700.31;;;22.50;35.56
40838;BME280;29632;49.168;9.848;2023-07-20T04:32:38;96707.47;;;22.50;35.62
40838;BME280;29632;49.168;9.848;2023-07-20T04:35:05;96705.78;;;22.55;35.57
40838;BME280;29632;49.168;9.848;2023-07-20T04:37:31;96710.63;;;22.58;35.75
40838;BME280;29632;49.168;9.848;2023-07-20T04:39:57;96711.50;;;22.52;35.64
40838;BME280;29632;49.168;9.848;2023-07-20T04:42:22;96704.03;;;22.49;35.82
40838;BME280;29632;49.168;9.848;2023-07-20T04:44:48;96705.47;;;22.45;35.87
40838;BME280;29632;49.168;9.848;2023-07-20T04:47:13;96712.03;;;22.42;35.81
40838;BME280;29632;49.168;9.848;2023-07-20T04:49:39;96712.69;;;22.38;36.07
40838;BME280;29632;49.168;9.848;2023-07-20T04:52:05;96704.97;;;22.36;36.12
40838;BME280;29632;49.168;9.848;2023-07-20T04:54:31;96704.59;;;22.33;36.12
40838;BME280;29632;49.168;9.848;2023-07-20T04:56:56;96709.31;;;22.31;36.19
40838;BME280;29632;49.168;9.848;2023-07-20T04:59:22;96705.84;;;22.30;36.11
40838;BME280;29632;49.168;9.848;2023-07-20T05:01:48;96705.25;;;22.28;36.23
40838;BME280;29632;49.168;9.848;2023-07-20T05:04:13;96709.53;;;22.29;36.03
40838;BME280;29632;49.168;9.848;2023-07-20T05:06:39;96706.88;;;22.29;36.19
40838;BME280;29632;49.168;9.848;2023-07-20T05:09:05;96705.06;;;22.30;36.24
40838;BME280;29632;49.168;9.848;2023-07-20T05:11:32;96712.75;;;22.31;36.13
40838;BME280;29632;49.168;9.848;2023-07-20T05:13:57;96710.25;;;22.36;36.22
40838;BME280;29632;49.168;9.848;2023-07-20T05:16:23;96704.53;;;22.39;36.01
40838;BME280;29632;49.168;9.848;2023-07-20T05:18:49;96705.69;;;22.43;35.96
40838;BME280;29632;49.168;9.848;2023-07-20T05:21:14;96707.31;;;22.44;36.15
40838;BME280;29632;49.168;9.848;2023-07-20T05:23:40;96708.28;;;22.50;35.97
40838;BME280;29632;49.168;9.848;2023-07-20T05:26:05;96707.25;;;22.51;35.89
40838;BME280;29632;49.168;9.848;2023-07-20T05:28:31;96706.22;;;22.52;35.98
40838;BME280;29632;49.168;9.848;2023-07-20T05:30:57;96708.63;;;22.54;35.98
40838;BME280;29632;49.168;9.848;2023-07-20T05:33:25;96714.09;;;22.59;36.15
40838;BME280;29632;49.168;9.848;2023-07-20T05:35:50;96709.63;;;22.59;35.88
40838;BME280;29632;49.168;9.848;2023-07-20T05:38:16;96710.00;;;22.63;35.96
40838;BME280;29632;49.168;9.848;2023-07-20T05:40:42;96708.72;;;22.66;35.86
40838;BME280;29632;49.168;9.848;2023-07-20T05:43:10;96707.47;;;22.68;36.10
40838;BME280;29632;49.168;9.848;2023-07-20T05:45:36;96707.47;;;22.68;36.00
40838;BME280;29632;49.168;9.848;2023-07-20T05:48:02;96707.63;;;22.73;36.01
40838;BME280;29632;49.168;9.848;2023-07-20T05:50:28;96703.47;;;22.77;36.10
40838;BME280;29632;49.168;9.848;2023-07-20T05:52:54;96709.59;;;22.78;36.01
40838;BME280;29632;49.168;9.848;2023-07-20T05:55:19;96717.56;;;22.78;36.02
40838;BME280;29632;49.168;9.848;2023-07-20T05:57:45;96718.97;;;22.80;35.92
40838;BME280;29632;49.168;9.848;2023-07-20T06:00:12;96720.13;;;22.85;35.99
40838;BME280;29632;49.168;9.848;2023-07-20T06:02:38;96720.84;;;22.92;35.97
40838;BME280;29632;49.168;9.848;2023-07-20T06:05:05;96723.44;;;22.98;36.12
40838;BME280;29632;49.168;9.848;2023-07-20T06:07:31;96725.03;;;22.99;36.18
40838;BME280;29632;49.168;9.848;2023-07-20T06:09:57;96721.94;;;23.03;36.09
40838;BME280;29632;49.168;9.848;2023-07-20T06:12:23;96719.84;;;23.05;35.94
40838;BME280;29632;49.168;9.848;2023-07-20T06:14:49;96729.69;;;23.04;36.00
40838;BME280;29632;49.168;9.848;2023-07-20T06:17:15;96720.50;;;23.07;36.37
40838;BME280;29632;49.168;9.848;2023-07-20T06:19:40;96728.22;;;23.08;35.83
40838;BME280;29632;49.168;9.848;2023-07-20T06:22:06;96721.09;;;23.09;36.18
40838;BME280;29632;49.168;9.848;2023-07-20T06:24:32;96722.91;;;23.08;36.05
40838;BME280;29632;49.168;9.848;2023-07-20T06:26:57;96720.72;;;23.05;36.11
40838;BME280;29632;49.168;9.848;2023-07-20T06:29:23;96722.09;;;23.08;36.20
40838;BME280;29632;49.168;9.848;2023-07-20T06:31:49;96710.81;;;23.12;36.40
40838;BME280;29632;49.168;9.848;2023-07-20T06:34:14;96716.84;;;23.19;36.37
40838;BME280;29632;49.168;9.848;2023-07-20T06:36:40;96717.44;;;23.22;36.45
40838;BME280;29632;49.168;9.848;2023-07-20T06:39:06;96713.28;;;23.26;36.41
40838;BME280;29632;49.168;9.848;2023-07-20T06:41:31;96709.59;;;23.27;36.22
40838;BME280;29632;49.168;9.848;2023-07-20T06:43:57;96719.53;;;23.31;36.28
40838;BME280;29632;49.168;9.848;2023-07-20T06:46:27;96707.78;;;23.39;36.30
40838;BME280;29632;49.168;9.848;2023-07-20T06:48:53;96716.69;;;23.45;36.05
40838;BME280;29632;49.168;9.848;2023-07-20T06:51:19;96714.72;;;23.52;36.21
40838;BME280;29632;49.168;9.848;2023-07-20T06:53:45;96718.91;;;23.60;35.96
40838;BME280;29632;49.168;9.848;2023-07-20T06:56:11;96717.31;;;23.70;35.73
40838;BME280;29632;49.168;9.848;2023-07-20T06:58:37;96720.31;;;23.74;35.91
40838;BME280;29632;49.168;9.848;2023-07-20T07:01:07;96718.81;;;23.78;36.14
40838;BME280;29632;49.168;9.848;2023-07-20T07:03:33;96719.56;;;23.85;35.84
40838;BME280;29632;49.168;9.848;2023-07-20T07:05:59;96721.28;;;23.91;35.87
40838;BME280;29632;49.168;9.848;2023-07-20T07:08:25;96711.94;;;24.01;35.75
40838;BME280;29632;49.168;9.848;2023-07-20T07:10:50;96714.81;;;24.11;35.78
40838;BME280;29632;49.168;9.848;2023-07-20T07:13:16;96709.72;;;24.21;35.81
40838;BME280;29632;49.168;9.848;2023-07-20T07:15:42;96715.50;;;24.30;35.75
40838;BME280;29632;49.168;9.848;2023-07-20T07:18:08;96715.63;;;24.35;35.46
40838;BME280;29632;49.168;9.848;2023-07-20T07:20:33;96709.38;;;24.41;35.61
40838;BME280;29632;49.168;9.848;2023-07-20T07:22:59;96716.66;;;24.46;35.52
40838;BME280;29632;49.168;9.848;2023-07-20T07:25:26;96711.78;;;24.55;35.78
40838;BME280;29632;49.168;9.848;2023-07-20T07:27:53;96710.41;;;24.64;35.30
40838;BME280;29632;49.168;9.848;2023-07-20T07:30:19;96700.09;;;24.67;35.79
40838;BME280;29632;49.168;9.848;2023-07-20T07:32:44;96708.41;;;24.71;35.27
40838;BME280;29632;49.168;9.848;2023-07-20T07:35:10;96708.75;;;24.75;35.26
40838;BME280;29632;49.168;9.848;2023-07-20T07:37:36;96707.56;;;24.82;35.39
40838;BME280;29632;49.168;9.848;2023-07-20T07:40:02;96703.13;;;24.88;35.16
40838;BME280;29632;49.168;9.848;2023-07-20T07:42:29;96712.63;;;24.96;35.50
40838;BME280;29632;49.168;9.848;2023-07-20T07:44:54;96709.50;;;24.99;35.37
40838;BME280;29632;49.168;9.848;2023-07-20T07:47:20;96707.06;;;24.97;35.44
40838;BME280;29632;49.168;9.848;2023-07-20T07:49:46;96701.56;;;25.04;35.19
40838;BME280;29632;49.168;9.848;2023-07-20T07:52:11;96714.66;;;25.05;35.48
40838;BME280;29632;49.168;9.848;2023-07-20T07:54:37;96709.09;;;25.07;35.50
40838;BME280;29632;49.168;9.848;2023-07-20T07:57:03;96705.81;;;25.17;35.35
40838;BME280;29632;49.168;9.848;2023-07-20T07:59:28;96704.97;;;25.28;35.36
40838;BME280;29632;49.168;9.848;2023-07-20T08:01:56;96704.34;;;25.38;35.02
40838;BME280;29632;49.168;9.848;2023-07-20T08:04:23;96718.00;;;25.41;34.97
40838;BME280;29632;49.168;9.848;2023-07-20T08:06:49;96711.78;;;25.36;35.43
40838;BME280;29632;49.168;9.848;2023-07-20T08:09:15;96701.28;;;25.29;35.29
40838;BME280;29632;49.168;9.848;2023-07-20T08:11:41;96712.50;;;25.31;35.55
40838;BME280;29632;49.168;9.848;2023-07-20T08:14:06;96711.03;;;25.40;35.58
40838;BME280;29632;49.168;9.848;2023-07-20T08:16:32;96706.13;;;25.49;35.07
40838;BME280;29632;49.168;9.848;2023-07-20T08:18:58;96714.53;;;25.58;35.11
40838;BME280;29632;49.168;9.848;2023-07-20T08:21:24;96707.47;;;25.63;34.99
40838;BME280;29632;49.168;9.848;2023-07-20T08:23:50;96714.56;;;25.75;35.26
40838;BME280;29632;49.168;9.848;2023-07-20T08:26:16;96705.34;;;25.82;34.98
40838;BME280;29632;49.168;9.848;2023-07-20T08:28:43;96704.78;;;25.80;35.09
40838;BME280;29632;49.168;9.848;2023-07-20T08:31:09;96701.53;;;25.78;35.21
40838;BME280;29632;49.168;9.848;2023-07-20T08:33:35;96705.84;;;25.79;35.21
40838;BME280;29632;49.168;9.848;2023-07-20T08:36:01;96704.13;;;25.90;35.30
40838;BME280;29632;49.168;9.848;2023-07-20T08:38:27;96700.25;;;25.98;34.86
40838;BME280;29632;49.168;9.848;2023-07-20T08:40:53;96695.31;;;26.07;34.74
40838;BME280;29632;49.168;9.848;2023-07-20T08:43:20;96695.72;;;26.15;34.79
40838;BME280;29632;49.168;9.848;2023-07-20T08:45:46;96691.31;;;26.26;34.73
40838;BME280;29632;49.168;9.848;2023-07-20T08:48:13;96694.13;;;26.36;34.49
40838;BME280;29632;49.168;9.848;2023-07-20T08:50:40;96690.78;;;26.46;34.34
40838;BME280;29632;49.168;9.848;2023-07-20T08:53:06;96700.47;;;26.52;34.70
40838;BME280;29632;49.168;9.848;2023-07-20T08:55:34;96701.28;;;26.53;34.58
40838;BME280;29632;49.168;9.848;2023-07-20T08:58:00;96697.06;;;26.57;34.67
40838;BME280;29632;49.168;9.848;2023-07-20T09:00:27;96700.22;;;26.54;34.82
40838;BME280;29632;49.168;9.848;2023-07-20T09:02:55;96705.19;;;26.45;34.35
40838;BME280;29632;49.168;9.848;2023-07-20T09:05:23;96695.66;;;26.49;34.69
40838;BME280;29632;49.168;9.848;2023-07-20T09:07:53;96689.78;;;26.52;34.76
40838;BME280;29632;49.168;9.848;2023-07-20T09:10:23;96701.06;;;26.54;34.63
40838;BME280;29632;49.168;9.848;2023-07-20T09:12:49;96700.47;;;26.52;34.68
40838;BME280;29632;49.168;9.848;2023-07-20T09:15:15;96701.59;;;26.56;34.56
40838;BME280;29632;49.168;9.848;2023-07-20T09:17:49;96705.00;;;26.52;34.72
40838;BME280;29632;49.168;9.848;2023-07-20T09:20:16;96700.97;;;26.49;34.49
40838;BME280;29632;49.168;9.848;2023-07-20T09:22:42;96698.38;;;26.54;34.49
40838;BME280;29632;49.168;9.848;2023-07-20T09:25:16;96703.59;;;26.66;34.65
40838;BME280;29632;49.168;9.848;2023-07-20T09:27:44;96697.28;;;26.72;34.45
40838;BME280;29632;49.168;9.848;2023-07-20T09:30:10;96690.69;;;26.80;34.21
40838;BME280;29632;49.168;9.848;2023-07-20T09:32:48;96691.34;;;26.92;34.27
40838;BME280;29632;49.168;9.848;2023-07-20T09:35:18;96689.34;;;27.05;34.35
40838;BME280;29632;49.168;9.848;2023-07-20T09:37:50;96690.16;;;27.05;34.09
40838;BME280;29632;49.168;9.848;2023-07-20T09:40:19;96689.09;;;27.06;33.89
40838;BME280;29632;49.168;9.848;2023-07-20T09:42:45;96690.16;;;27.05;34.01
40838;BME280;29632;49.168;9.848;2023-07-20T09:45:11;96685.88;;;27.04;34.11
40838;BME280;29632;49.168;9.848;2023-07-20T09:47:37;96695.75;;;27.04;34.02
40838;BME280;29632;49.168;9.848;2023-07-20T09:50:04;96693.63;;;27.06;34.38
40838;BME280;29632;49.168;9.848;2023-07-20T09:52:31;96689.41;;;27.10;33.93
40838;BME280;29632;49.168;9.848;2023-07-20T09:54:57;96681.38;;;27.10;34.20
40838;BME280;29632;49.168;9.848;2023-07-20T09:57:23;96681.63;;;27.08;33.78
40838;BME280;29632;49.168;9.848;2023-07-20T09:59:51;96682.75;;;27.12;33.86
40838;BME280;29632;49.168;9.848;2023-07-20T10:02:21;96677.72;;;27.16;33.89
40838;BME280;29632;49.168;9.848;2023-07-20T10:04:53;96678.50;;;27.17;33.75
40838;BME280;29632;49.168;9.848;2023-07-20T10:07:19;96670.28;;;27.23;33.76
40838;BME280;29632;49.168;9.848;2023-07-20T10:09:46;96676.25;;;27.30;33.56
40838;BME280;29632;49.168;9.848;2023-07-20T10:12:13;96680.31;;;27.33;33.77
40838;BME280;29632;49.168;9.848;2023-07-20T10:14:42;96669.97;;;27.42;33.63
40838;BME280;29632;49.168;9.848;2023-07-20T10:17:11;96668.47;;;27.56;33.24
40838;BME280;29632;49.168;9.848;2023-07-20T10:19:46;96669.13;;;27.74;33.09
40838;BME280;29632;49.168;9.848;2023-07-20T10:22:14;96657.47;;;27.90;33.08
40838;BME280;29632;49.168;9.848;2023-07-20T10:24:45;96665.59;;;28.00;33.20
40838;BME280;29632;49.168;9.848;2023-07-20T10:27:11;96668.84;;;28.08;32.75
40838;BME280;29632;49.168;9.848;2023-07-20T10:29:36;96668.34;;;28.16;32.84
40838;BME280;29632;49.168;9.848;2023-07-20T10:32:03;96667.03;;;28.18;32.97
40838;BME280;29632;49.168;9.848;2023-07-20T10:34:29;96671.00;;;28.11;32.75
40838;BME280;29632;49.168;9.848;2023-07-20T10:36:54;96662.97;;;28.11;32.73
40838;BME280;29632;49.168;9.848;2023-07-20T10:39:27;96660.59;;;28.14;32.83
40838;BME280;29632;49.168;9.848;2023-07-20T10:42:03;96658.75;;;28.25;32.68
40838;BME280;29632;49.168;9.848;2023-07-20T10:44:31;96664.66;;;28.27;32.54
40838;BME280;29632;49.168;9.848;2023-07-20T10:47:01;96658.28;;;28.33;32.47
40838;BME280;29632;49.168;9.848;2023-07-20T10:49:28;96656.97;;;28.41;32.35
40838;BME280;29632;49.168;9.848;2023-07-20T10:51:59;96653.53;;;28.51;32.19
40838;BME280;29632;49.168;9.848;2023-07-20T10:56:50;96645.03;;;28.59;32.32
40838;BME280;29632;49.168;9.848;2023-07-20T10:59:41;96645.03;;;28.69;32.03
40838;BME280;29632;49.168;9.848;2023-07-20T11:02:07;96658.47;;;28.85;32.14
40838;BME280;29632;49.168;9.848;2023-07-20T11:04:44;96647.22;;;28.77;31.99
40838;BME280;29632;49.168;9.848;2023-07-20T11:07:10;96649.06;;;28.72;31.67
40838;BME280;29632;49.168;9.848;2023-07-20T11:09:37;96639.69;;;28.74;31.84
40838;BME280;29632;49.168;9.848;2023-07-20T11:12:29;96638.91;;;28.79;31.77
40838;BME280;29632;49.168;9.848;2023-07-20T11:14:56;96645.63;;;28.81;31.26
40838;BME280;29632;49.168;9.848;2023-07-20T11:17:32;96642.38;;;28.79;31.26
40838;BME280;29632;49.168;9.848;2023-07-20T11:19:59;96646.69;;;28.75;31.19
40838;BME280;29632;49.168;9.848;2023-07-20T11:22:30;96646.41;;;28.72;31.27
40838;BME280;29632;49.168;9.848;2023-07-20T11:24:57;96646.94;;;28.74;31.79
40838;BME280;29632;49.168;9.848;2023-07-20T11:27:22;96637.28;;;28.78;31.34
40838;BME280;29632;49.168;9.848;2023-07-20T11:29:48;96639.19;;;28.88;31.40
40838;BME280;29632;49.168;9.848;2023-07-20T11:32:22;96637.88;;;29.00;31.50
40838;BME280;29632;49.168;9.848;2023-07-20T11:34:49;96634.41;;;29.10;31.36
40838;BME280;29632;49.168;9.848;2023-07-20T11:37:15;96630.97;;;29.20;31.39
40838;BME280;29632;49.168;9.848;2023-07-20T11:39:41;96636.88;;;29.32;31.36
40838;BME280;29632;49.168;9.848;2023-07-20T11:42:07;96646.25;;;29.40;31.04
40838;BME280;29632;49.168;9.848;2023-07-20T11:44:33;96636.06;;;29.42;30.88
40838;BME280;29632;49.168;9.848;2023-07-20T11:49:29;96629.63;;;29.59;30.61
40838;BME280;29632;49.168;9.848;2023-07-20T11:51:55;96636.59;;;29.70;30.62
40838;BME280;29632;49.168;9.848;2023-07-20T11:54:22;96629.91;;;29.78;30.25
40838;BME280;29632;49.168;9.848;2023-07-20T11:56:48;96626.13;;;29.73;30.41
40838;BME280;29632;49.168;9.848;2023-07-20T11:59:14;96626.66;;;29.70;30.69
40838;BME280;29632;49.168;9.848;2023-07-20T12:01:39;96617.81;;;29.80;30.29
40838;BME280;29632;49.168;9.848;2023-07-20T12:04:06;96620.50;;;29.85;30.35
40838;BME280;29632;49.168;9.848;2023-07-20T12:06:32;96611.34;;;29.86;30.25
40838;BME280;29632;49.168;9.848;2023-07-20T12:08:58;96608.41;;;29.88;29.89
40838;BME280;29632;49.168;9.848;2023-07-20T12:11:50;96611.09;;;29.83;30.28
40838;BME280;29632;49.168;9.848;2023-07-20T12:14:16;96617.28;;;29.83;30.20
40838;BME280;29632;49.168;9.848;2023-07-20T12:16:42;96603.88;;;29.83;29.94
40838;BME280;29632;49.168;9.848;2023-07-20T12:19:10;96604.13;;;29.87;29.70
40838;BME280;29632;49.168;9.848;2023-07-20T12:21:37;96605.97;;;29.91;29.83
40838;BME280;29632;49.168;9.848;2023-07-20T12:24:04;96594.97;;;29.98;30.11
40838;BME280;29632;49.168;9.848;2023-07-20T12:26:30;96600.56;;;30.07;29.58
40838;BME280;29632;49.168;9.848;2023-07-20T12:28:56;96610.50;;;30.11;29.46
40838;BME280;29632;49.168;9.848;2023-07-20T12:31:22;96605.38;;;30.20;29.41
40838;BME280;29632;49.168;9.848;2023-07-20T12:33:50;96601.81;;;30.30;29.63
40838;BME280;29632;49.168;9.848;2023-07-20T12:36:17;96601.28;;;30.33;29.05
40838;BME280;29632;49.168;9.848;2023-07-20T12:38:42;96601.56;;;30.31;29.31
40838;BME280;29632;49.168;9.848;2023-07-20T12:41:10;96597.03;;;30.27;29.62
40838;BME280;29632;49.168;9.848;2023-07-20T12:43:38;96602.13;;;30.23;29.29
40838;BME280;29632;49.168;9.848;2023-07-20T12:46:03;96602.69;;;30.20;29.19
40838;BME280;29632;49.168;9.848;2023-07-20T12:48:29;96601.34;;;30.12;29.14
40838;BME280;29632;49.168;9.848;2023-07-20T12:50:55;96594.13;;;30.08;29.57
40838;BME280;29632;49.168;9.848;2023-07-20T12:53:20;96585.31;;;30.02;29.43
40838;BME280;29632;49.168;9.848;2023-07-20T12:55:47;96583.16;;;30.04;29.08
40838;BME280;29632;49.168;9.848;2023-07-20T12:58:13;96580.19;;;30.06;29.06
40838;BME280;29632;49.168;9.848;2023-07-20T13:00:39;96580.72;;;30.08;29.29
40838;BME280;29632;49.168;9.848;2023-07-20T13:03:06;96588.25;;;30.06;28.64
40838;BME280;29632;49.168;9.848;2023-07-20T13:05:32;96577.50;;;30.06;28.81
40838;BME280;29632;49.168;9.848;2023-07-20T13:07:58;96568.09;;;30.08;29.08
40838;BME280;29632;49.168;9.848;2023-07-20T13:10:24;96571.78;;;30.18;28.82
40838;BME280;29632;49.168;9.848;2023-07-20T13:12:50;96571.81;;;30.12;28.58